createdAt,value
2022-08-03T00:01:48.591Z,101589.09
2022-08-03T00:04:15.038Z,101588.53
2022-08-03T00:06:41.539Z,101585.88
2022-08-03T00:09:08.083Z,101594.91
2022-08-03T00:11:34.932Z,101590.84
2022-08-03T00:14:01.730Z,101592.81
2022-08-03T00:16:28.365Z,101588.19
2022-08-03T00:18:55.365Z,101589.31
2022-08-03T00:21:21.918Z,101594.75
2022-08-03T00:23:51.516Z,101580.78
2022-08-03T00:26:19.374Z,101581.50
2022-08-03T00:28:45.850Z,101584.00
2022-08-03T00:31:13.431Z,101589.31
2022-08-03T00:33:59.407Z,101582.47
2022-08-03T00:36:27.186Z,101586.66
2022-08-03T00:38:53.747Z,101588.59
2022-08-03T00:41:20.263Z,101582.84
2022-08-03T00:43:47.531Z,101586.03
2022-08-03T00:46:19.053Z,101582.13
2022-08-03T00:48:47.357Z,101590.31
2022-08-03T00:51:13.935Z,101579.56
2022-08-03T00:53:40.833Z,101578.16
2022-08-03T00:56:07.378Z,101575.41
2022-08-03T00:58:33.835Z,101576.25
2022-08-03T01:01:00.566Z,101577.34
2022-08-03T01:03:27.189Z,101574.28
2022-08-03T01:06:00.497Z,101570.19
2022-08-03T01:08:45.656Z,101567.78
2022-08-03T01:11:18.138Z,101571.31
2022-08-03T01:14:18.354Z,101565.97
2022-08-03T01:16:56.956Z,101561.75
2022-08-03T01:19:34.644Z,101569.72
2022-08-03T01:22:22.858Z,101571.63
2022-08-03T01:25:09.149Z,101568.56
2022-08-03T01:28:13.327Z,101564.09
2022-08-03T01:30:43.317Z,101565.34
2022-08-03T01:33:24.442Z,101567.53
2022-08-03T01:35:58.477Z,101570.28
2022-08-03T01:38:29.385Z,101559.97
2022-08-03T01:40:57.091Z,101560.78
2022-08-03T01:44:26.507Z,101566.50
2022-08-03T01:46:19.989Z,101560.31
2022-08-03T01:48:48.296Z,101557.00
2022-08-03T01:51:18.550Z,101561.56
2022-08-03T01:53:46.810Z,101548.47
2022-08-03T01:56:14.637Z,101556.09
2022-08-03T01:58:42.162Z,101543.69
2022-08-03T02:01:10.186Z,101541.88
2022-08-03T02:04:00.193Z,101550.09
2022-08-03T02:07:00.305Z,101548.94
2022-08-03T02:09:20.851Z,101545.56
2022-08-03T02:11:47.978Z,101545.69
2022-08-03T02:14:16.114Z,101560.03
2022-08-03T02:16:44.762Z,101551.66
2022-08-03T02:19:11.513Z,101541.31
2022-08-03T02:21:56.286Z,101550.09
2022-08-03T02:24:25.342Z,101558.69
2022-08-03T02:26:55.286Z,101556.28
2022-08-03T02:29:40.405Z,101552.91
2022-08-03T02:32:10.515Z,101549.69
2022-08-03T02:34:38.185Z,101540.09
2022-08-03T02:37:06.050Z,101540.19
2022-08-03T02:39:35.513Z,101537.44
2022-08-03T02:42:03.249Z,101538.13
2022-08-03T02:44:32.918Z,101539.09
2022-08-03T02:47:05.043Z,101529.63
2022-08-03T02:49:40.478Z,101532.50
2022-08-03T02:52:19.706Z,101529.63
2022-08-03T02:54:48.816Z,101528.78
2022-08-03T02:57:16.203Z,101521.81
2022-08-03T02:59:44.696Z,101521.25
2022-08-03T03:02:12.348Z,101518.97
2022-08-03T03:05:00.505Z,101519.94
2022-08-03T03:07:27.103Z,101522.84
2022-08-03T03:09:56.420Z,101524.06
2022-08-03T03:12:23.668Z,101520.81
2022-08-03T03:14:50.526Z,101525.50
2022-08-03T03:17:18.670Z,101526.38
2022-08-03T03:19:46.031Z,101520.47
2022-08-03T03:22:13.367Z,101529.72
2022-08-03T03:24:41.658Z,101526.38
2022-08-03T03:27:08.732Z,101521.22
2022-08-03T03:29:39.185Z,101516.16
2022-08-03T03:32:09.214Z,101521.59
2022-08-03T03:34:37.248Z,101522.69
2022-08-03T03:37:05.112Z,101528.22
2022-08-03T03:39:31.988Z,101519.44
2022-08-03T03:41:58.586Z,101522.34
2022-08-03T03:44:29.137Z,101526.78
2022-08-03T03:46:58.474Z,101530.50
2022-08-03T03:49:26.138Z,101526.44
2022-08-03T03:51:56.426Z,101525.59
2022-08-03T03:54:25.510Z,101526.56
2022-08-03T03:56:56.160Z,101530.88
2022-08-03T03:59:22.679Z,101526.56
2022-08-03T04:01:58.923Z,101530.16
2022-08-03T04:04:44.201Z,101529.47
2022-08-03T04:07:29.120Z,101526.94
2022-08-03T04:10:15.120Z,101524.19
2022-08-03T04:12:50.285Z,101531.38
2022-08-03T04:15:21.269Z,101531.47
2022-08-03T04:17:50.276Z,101528.16
2022-08-03T04:20:19.961Z,101533.28
2022-08-03T04:22:49.649Z,101528.84
2022-08-03T04:25:19.387Z,101530.91
2022-08-03T04:28:28.279Z,101532.00
2022-08-03T04:30:37.632Z,101534.66
2022-08-03T04:33:05.929Z,101532.09
2022-08-03T04:36:02.222Z,101531.13
2022-08-03T04:38:22.581Z,101528.38
2022-08-03T04:40:49.301Z,101526.72
2022-08-03T04:43:18.664Z,101533.66
2022-08-03T04:45:47.869Z,101535.34
2022-08-03T04:48:15.306Z,101531.63
2022-08-03T04:50:42.814Z,101540.53
2022-08-03T04:53:09.417Z,101538.72
2022-08-03T04:55:36.530Z,101539.53
2022-08-03T04:58:04.361Z,101544.69
2022-08-03T05:00:30.909Z,101547.22
2022-08-03T05:02:57.442Z,101549.63
2022-08-03T05:05:23.978Z,101552.03
2022-08-03T05:07:50.699Z,101546.00
2022-08-03T05:10:17.570Z,101557.41
2022-08-03T05:12:46.000Z,101556.34
2022-08-03T05:15:13.055Z,101562.22
2022-08-03T05:17:40.017Z,101554.28
2022-08-03T05:20:06.975Z,101565.44
2022-08-03T05:22:33.568Z,101568.44
2022-08-03T05:25:01.758Z,101562.31
2022-08-03T05:27:28.329Z,101565.19
2022-08-03T05:29:54.816Z,101558.25
2022-08-03T05:32:21.505Z,101569.06
2022-08-03T05:34:48.021Z,101567.00
2022-08-03T05:37:14.665Z,101570.38
2022-08-03T05:39:41.141Z,101573.38
2022-08-03T05:42:07.933Z,101573.09
2022-08-03T05:44:34.463Z,101571.91
2022-08-03T05:47:01.047Z,101565.53
2022-08-03T05:49:27.656Z,101559.94
2022-08-03T05:52:00.285Z,101566.28
2022-08-03T05:54:55.297Z,101568.13
2022-08-03T05:57:23.564Z,101568.22
2022-08-03T05:59:54.001Z,101568.88
2022-08-03T06:02:26.417Z,101562.81
2022-08-03T06:04:52.932Z,101558.34
2022-08-03T06:07:19.382Z,101564.84
2022-08-03T06:10:33.803Z,101559.09
2022-08-03T06:12:35.911Z,101569.00
2022-08-03T06:15:04.405Z,101564.56
2022-08-03T06:17:37.342Z,101563.03
2022-08-03T06:20:05.727Z,101562.41
2022-08-03T06:22:32.178Z,101569.63
2022-08-03T06:24:58.918Z,101574.72
2022-08-03T06:27:36.998Z,101575.56
2022-08-03T06:30:05.100Z,101565.94
2022-08-03T06:32:31.627Z,101572.09
2022-08-03T06:34:58.057Z,101572.22
2022-08-03T06:37:24.616Z,101568.94
2022-08-03T06:39:51.064Z,101567.53
2022-08-03T06:42:17.840Z,101572.28
2022-08-03T06:44:44.555Z,101571.19
2022-08-03T06:47:11.426Z,101573.00
2022-08-03T06:49:38.275Z,101571.63
2022-08-03T06:52:07.013Z,101573.84
2022-08-03T06:54:34.126Z,101574.72
2022-08-03T06:57:00.863Z,101569.00
2022-08-03T07:00:10.828Z,101569.84
2022-08-03T07:02:18.922Z,101575.16
2022-08-03T07:04:47.501Z,101573.66
2022-08-03T07:07:14.090Z,101583.25
2022-08-03T07:09:40.526Z,101576.66
2022-08-03T07:12:08.419Z,101588.97
2022-08-03T07:14:35.069Z,101584.34
2022-08-03T07:17:01.538Z,101587.03
2022-08-03T07:19:31.114Z,101588.59
2022-08-03T07:22:02.221Z,101587.75
2022-08-03T07:24:30.762Z,101588.75
2022-08-03T07:26:57.341Z,101596.53
2022-08-03T07:29:23.833Z,101597.81
2022-08-03T07:31:50.274Z,101601.03
2022-08-03T07:34:16.835Z,101602.28
2022-08-03T07:36:43.277Z,101600.34
2022-08-03T07:39:15.806Z,101605.91
2022-08-03T07:41:44.442Z,101600.59
2022-08-03T07:44:11.006Z,101594.72
2022-08-03T07:46:37.651Z,101598.34
2022-08-03T07:49:04.140Z,101589.94
2022-08-03T07:51:30.704Z,101591.31
2022-08-03T07:53:57.758Z,101591.59
2022-08-03T07:56:28.028Z,101591.28
2022-08-03T07:58:55.574Z,101592.75
2022-08-03T08:01:22.781Z,101598.31
2022-08-03T08:03:52.706Z,101595.91
2022-08-03T08:06:21.421Z,101591.81
2022-08-03T08:08:48.112Z,101584.47
2022-08-03T08:11:14.992Z,101588.75
2022-08-03T08:13:41.437Z,101585.78
2022-08-03T08:16:07.931Z,101594.38
2022-08-03T08:18:34.537Z,101588.88
2022-08-03T08:21:03.210Z,101581.28
2022-08-03T08:23:37.879Z,101588.88
2022-08-03T08:26:09.587Z,101584.00
2022-08-03T08:28:36.059Z,101583.66
2022-08-03T08:31:02.614Z,101588.50
2022-08-03T08:33:48.058Z,101590.59
2022-08-03T08:36:16.147Z,101581.00
2022-08-03T08:38:44.825Z,101596.56
2022-08-03T08:41:12.669Z,101595.81
2022-08-03T08:43:39.409Z,101594.84
2022-08-03T08:46:08.417Z,101595.13
2022-08-03T08:48:36.427Z,101597.22
2022-08-03T08:51:03.328Z,101598.34
2022-08-03T08:53:32.811Z,101599.88
2022-08-03T08:56:01.073Z,101604.63
2022-08-03T08:58:36.904Z,101597.28
2022-08-03T09:01:04.208Z,101600.84
2022-08-03T09:03:33.532Z,101602.19
2022-08-03T09:06:01.289Z,101591.94
2022-08-03T09:08:29.461Z,101596.63
2022-08-03T09:10:56.086Z,101597.47
2022-08-03T09:13:22.785Z,101600.31
2022-08-03T09:15:59.840Z,101595.41
2022-08-03T09:18:32.536Z,101599.47
2022-08-03T09:21:30.668Z,101600.91
2022-08-03T09:24:04.681Z,101596.88
2022-08-03T09:26:37.491Z,101601.22
2022-08-03T09:29:14.553Z,101599.38
2022-08-03T09:31:45.931Z,101606.44
2022-08-03T09:34:17.441Z,101603.84
2022-08-03T09:36:45.647Z,101593.84
2022-08-03T09:39:14.779Z,101601.03
2022-08-03T09:41:43.004Z,101599.88
2022-08-03T09:44:24.680Z,101600.56
2022-08-03T09:46:56.610Z,101602.94
2022-08-03T09:49:23.847Z,101605.44
2022-08-03T09:52:31.642Z,101604.78
2022-08-03T09:54:37.403Z,101592.91
2022-08-03T09:57:04.259Z,101598.28
2022-08-03T09:59:33.354Z,101596.25
2022-08-03T10:02:00.681Z,101596.41
2022-08-03T10:04:27.791Z,101600.94
2022-08-03T10:07:04.946Z,101589.91
2022-08-03T10:09:31.486Z,101600.59
2022-08-03T10:12:06.692Z,101596.25
2022-08-03T10:14:34.074Z,101594.53
2022-08-03T10:17:00.641Z,101596.34
2022-08-03T10:19:27.168Z,101593.69
2022-08-03T10:21:56.860Z,101595.00
2022-08-03T10:24:29.822Z,101597.31
2022-08-03T10:27:04.649Z,101599.13
2022-08-03T10:29:38.440Z,101593.06
2022-08-03T10:32:14.595Z,101597.03
2022-08-03T10:34:44.664Z,101591.41
2022-08-03T10:37:14.584Z,101597.56
2022-08-03T10:39:53.435Z,101601.41
2022-08-03T10:42:24.616Z,101589.00
2022-08-03T10:45:16.539Z,101583.56
2022-08-03T10:47:43.519Z,101579.91
2022-08-03T10:50:11.087Z,101586.16
2022-08-03T10:52:56.993Z,101581.28
2022-08-03T10:55:53.037Z,101581.25
2022-08-03T10:58:57.060Z,101580.53
2022-08-03T11:02:00.835Z,101578.47
2022-08-03T11:04:29.772Z,101575.78
2022-08-03T11:07:22.921Z,101572.47
2022-08-03T11:09:51.813Z,101562.81
2022-08-03T11:12:21.290Z,101564.41
2022-08-03T11:14:56.351Z,101564.53
2022-08-03T11:17:23.089Z,101566.94
2022-08-03T11:19:57.521Z,101568.56
2022-08-03T11:22:25.405Z,101566.44
2022-08-03T11:24:54.073Z,101572.06
2022-08-03T11:27:23.106Z,101568.06
2022-08-03T11:30:26.523Z,101568.38
2022-08-03T11:32:57.737Z,101564.75
2022-08-03T11:35:36.534Z,101563.19
2022-08-03T11:38:05.966Z,101565.88
2022-08-03T11:40:33.767Z,101567.41
2022-08-03T11:43:00.333Z,101573.06
2022-08-03T11:45:27.023Z,101567.97
2022-08-03T11:47:55.432Z,101565.19
2022-08-03T11:50:22.562Z,101565.88
2022-08-03T11:52:49.786Z,101574.63
2022-08-03T11:55:20.425Z,101566.00
2022-08-03T11:59:16.851Z,101573.38
2022-08-03T12:00:34.263Z,101568.97
2022-08-03T12:03:05.476Z,101563.47
2022-08-03T12:05:39.837Z,101566.59
2022-08-03T12:08:08.212Z,101569.69
2022-08-03T12:10:35.458Z,101565.84
2022-08-03T12:13:05.943Z,101566.50
2022-08-03T12:15:59.354Z,101569.13
2022-08-03T12:18:26.099Z,101560.50
2022-08-03T12:20:54.404Z,101563.69
2022-08-03T12:23:21.072Z,101564.88
2022-08-03T12:25:48.176Z,101568.13
2022-08-03T12:28:28.279Z,101561.03
2022-08-03T12:31:07.420Z,101561.72
2022-08-03T12:34:08.242Z,101564.84
2022-08-03T12:36:36.543Z,101560.69
2022-08-03T12:39:07.007Z,101562.38
2022-08-03T12:41:36.513Z,101567.59
2022-08-03T12:44:04.774Z,101570.72
2022-08-03T12:46:34.456Z,101558.50
2022-08-03T12:49:07.904Z,101563.34
2022-08-03T12:51:37.468Z,101565.22
2022-08-03T12:54:05.198Z,101564.03
2022-08-03T12:56:31.717Z,101551.84
2022-08-03T12:58:58.201Z,101562.38
2022-08-03T13:01:24.770Z,101555.22
2022-08-03T13:03:53.640Z,101553.19
2022-08-03T13:06:23.681Z,101556.78
2022-08-03T13:09:01.412Z,101551.19
2022-08-03T13:11:47.556Z,101549.28
2022-08-03T13:14:19.565Z,101548.72
2022-08-03T13:16:47.086Z,101547.06
2022-08-03T13:19:15.657Z,101547.72
2022-08-03T13:21:53.689Z,101544.00
2022-08-03T13:24:30.476Z,101549.88
2022-08-03T13:26:57.924Z,101554.41
2022-08-03T13:29:24.360Z,101556.13
2022-08-03T13:31:51.544Z,101557.34
2022-08-03T13:34:22.927Z,101541.28
2022-08-03T13:39:57.914Z,101548.63
2022-08-03T13:42:25.405Z,101543.94
2022-08-03T13:44:51.953Z,101549.94
2022-08-03T13:47:19.430Z,101558.41
2022-08-03T13:49:56.966Z,101551.31
2022-08-03T13:52:33.580Z,101555.09
2022-08-03T13:55:01.025Z,101549.72
2022-08-03T13:58:02.872Z,101542.44
2022-08-03T14:00:16.123Z,101551.75
2022-08-03T14:03:01.912Z,101553.41
2022-08-03T14:05:32.124Z,101550.13
2022-08-03T14:08:04.202Z,101548.50
2022-08-03T14:10:30.954Z,101547.22
2022-08-03T14:13:00.253Z,101545.75
2022-08-03T14:15:28.555Z,101536.81
2022-08-03T14:17:55.769Z,101538.72
2022-08-03T14:20:38.458Z,101540.19
2022-08-03T14:23:12.693Z,101535.63
2022-08-03T14:25:50.327Z,101533.06
2022-08-03T14:28:22.410Z,101519.53
2022-08-03T14:30:49.618Z,101517.63
2022-08-03T14:33:16.148Z,101519.00
2022-08-03T14:35:42.760Z,101520.25
2022-08-03T14:38:09.324Z,101523.16
2022-08-03T14:40:35.888Z,101511.44
2022-08-03T14:43:02.658Z,101518.28
2022-08-03T14:45:29.158Z,101511.53
2022-08-03T14:50:34.121Z,101509.94
2022-08-03T14:50:48.323Z,101507.50
2022-08-03T14:53:17.656Z,101507.13
2022-08-03T14:55:49.762Z,101500.06
2022-08-03T14:58:22.816Z,101510.25
2022-08-03T15:00:51.440Z,101509.47
2022-08-03T15:03:25.822Z,101501.13
2022-08-03T15:05:54.019Z,101507.13
2022-08-03T15:08:21.603Z,101497.44
2022-08-03T15:10:49.211Z,101499.13
2022-08-03T15:13:16.916Z,101504.53
2022-08-03T15:15:43.545Z,101491.88
2022-08-03T15:18:10.130Z,101497.88
2022-08-03T15:20:44.444Z,101495.59
2022-08-03T15:23:13.679Z,101491.47
2022-08-03T15:26:30.239Z,101504.94
2022-08-03T15:28:26.646Z,101488.53
2022-08-03T15:30:53.178Z,101487.50
2022-08-03T15:33:20.185Z,101495.81
2022-08-03T15:35:47.686Z,101494.75
2022-08-03T15:38:14.676Z,101487.31
2022-08-03T15:40:41.608Z,101485.22
2022-08-03T15:43:08.270Z,101496.41
2022-08-03T15:45:35.316Z,101487.72
2022-08-03T15:48:03.069Z,101486.69
2022-08-03T15:50:29.589Z,101489.78
2022-08-03T15:52:56.601Z,101498.69
2022-08-03T15:55:23.277Z,101481.28
2022-08-03T15:59:10.431Z,101482.97
2022-08-03T16:00:36.430Z,101478.81
2022-08-03T16:03:02.929Z,101476.53
2022-08-03T16:05:29.473Z,101482.75
2022-08-03T16:08:03.814Z,101478.59
2022-08-03T16:10:31.644Z,101471.75
2022-08-03T16:13:01.012Z,101466.34
2022-08-03T16:15:27.927Z,101469.25
2022-08-03T16:17:54.839Z,101466.16
2022-08-03T16:20:34.443Z,101467.00
2022-08-03T16:23:10.763Z,101459.31
2022-08-03T16:25:41.507Z,101465.50
2022-08-03T16:28:13.724Z,101470.50
2022-08-03T16:30:42.524Z,101468.66
2022-08-03T16:33:09.199Z,101462.84
2022-08-03T16:35:35.871Z,101460.13
2022-08-03T16:38:07.851Z,101451.34
2022-08-03T16:40:36.357Z,101450.06
2022-08-03T16:43:18.094Z,101450.88
2022-08-03T16:45:48.746Z,101451.75
2022-08-03T16:48:15.591Z,101451.69
2022-08-03T16:50:42.311Z,101458.88
2022-08-03T16:53:15.500Z,101447.25
2022-08-03T16:55:53.946Z,101453.78
2022-08-03T16:58:41.861Z,101447.88
2022-08-03T17:01:22.098Z,101458.16
2022-08-03T17:04:03.309Z,101458.47
2022-08-03T17:06:35.309Z,101459.47
2022-08-03T17:09:14.450Z,101454.00
2022-08-03T17:11:46.804Z,101446.03
2022-08-03T17:14:15.797Z,101444.34
2022-08-03T17:16:52.559Z,101446.72
2022-08-03T17:19:23.741Z,101450.56
2022-08-03T17:22:01.446Z,101453.25
2022-08-03T17:24:41.578Z,101450.44
2022-08-03T17:27:18.618Z,101455.94
2022-08-03T17:30:03.813Z,101455.94
2022-08-03T17:32:33.602Z,101454.06
2022-08-03T17:35:00.729Z,101457.09
2022-08-03T17:37:58.144Z,101449.75
2022-08-03T17:40:17.651Z,101454.44
2022-08-03T17:42:45.721Z,101456.25
2022-08-03T17:45:17.605Z,101456.91
2022-08-03T17:47:45.458Z,101461.06
2022-08-03T17:50:32.010Z,101459.88
2022-08-03T17:53:07.196Z,101462.44
2022-08-03T17:55:55.335Z,101463.78
2022-08-03T17:58:41.841Z,101461.25
2022-08-03T18:04:30.116Z,101458.91
2022-08-03T18:06:59.314Z,101468.03
2022-08-03T18:10:06.875Z,101461.81
2022-08-03T18:12:24.920Z,101458.69
2022-08-03T18:15:01.197Z,101464.47
2022-08-03T18:17:55.987Z,101462.59
2022-08-03T18:20:34.812Z,101456.16
2022-08-03T18:23:08.724Z,101460.06
2022-08-03T18:25:44.884Z,101459.59
2022-08-03T18:28:14.402Z,101455.41
2022-08-03T18:30:54.688Z,101457.00
2022-08-03T18:34:16.797Z,101453.25
2022-08-03T18:36:17.970Z,101457.59
2022-08-03T18:38:47.554Z,101454.06
2022-08-03T18:41:22.179Z,101458.53
2022-08-03T18:44:06.791Z,101456.69
2022-08-03T18:47:16.106Z,101447.69
2022-08-03T18:49:57.386Z,101452.75
2022-08-03T18:52:37.648Z,101455.38
2022-08-03T18:55:20.561Z,101455.66
2022-08-03T18:58:15.713Z,101456.78
2022-08-03T19:01:58.559Z,101454.50
2022-08-03T19:04:31.977Z,101458.53
2022-08-03T19:07:02.645Z,101464.50
2022-08-03T19:09:38.028Z,101464.44
2022-08-03T19:12:30.561Z,101464.38
2022-08-03T19:15:05.438Z,101461.19
2022-08-03T19:17:35.986Z,101463.78
2022-08-03T19:20:05.998Z,101476.94
2022-08-03T19:22:33.392Z,101471.47
2022-08-03T19:25:03.915Z,101470.56
2022-08-03T19:27:31.338Z,101473.53
2022-08-03T19:30:03.081Z,101472.03
2022-08-03T19:32:32.435Z,101468.59
2022-08-03T19:35:00.929Z,101478.53
2022-08-03T19:37:38.103Z,101479.91
2022-08-03T19:40:10.287Z,101484.13
2022-08-03T19:42:41.106Z,101476.19
2022-08-03T19:45:11.232Z,101486.81
2022-08-03T19:47:53.047Z,101481.44
2022-08-03T19:50:20.609Z,101487.38
2022-08-03T19:52:48.541Z,101488.94
2022-08-03T19:55:17.228Z,101484.13
2022-08-03T19:57:46.882Z,101477.00
2022-08-03T20:00:19.447Z,101479.59
2022-08-03T20:02:46.270Z,101473.75
2022-08-03T20:05:15.697Z,101474.66
2022-08-03T20:07:47.470Z,101477.56
2022-08-03T20:10:15.389Z,101476.16
2022-08-03T20:12:43.806Z,101470.22
2022-08-03T20:15:10.799Z,101466.78
2022-08-03T20:17:54.778Z,101465.66
2022-08-03T20:20:33.038Z,101461.38
2022-08-03T20:23:01.893Z,101458.38
2022-08-03T20:25:39.315Z,101467.31
2022-08-03T20:28:26.831Z,101454.97
2022-08-03T20:30:53.677Z,101463.00
2022-08-03T20:33:20.219Z,101462.03
2022-08-03T20:35:54.607Z,101459.44
2022-08-03T20:38:27.339Z,101456.28
2022-08-03T20:40:54.297Z,101457.44
2022-08-03T20:43:20.802Z,101463.84
2022-08-03T20:45:58.457Z,101458.72
2022-08-03T20:48:27.058Z,101455.25
2022-08-03T20:50:56.523Z,101460.94
2022-08-03T20:53:57.053Z,101457.13
2022-08-03T20:56:10.184Z,101456.31
2022-08-03T20:58:36.951Z,101457.00
2022-08-03T21:01:08.038Z,101453.34
2022-08-03T21:03:41.149Z,101457.72
2022-08-03T21:06:27.715Z,101459.22
2022-08-03T21:09:04.014Z,101458.06
2022-08-03T21:11:41.927Z,101456.75
2022-08-03T21:13:04.223Z,101459.25
2022-08-03T21:14:39.056Z,101452.06
2022-08-03T21:17:14.361Z,101446.75
2022-08-03T21:19:53.327Z,101441.91
2022-08-03T21:22:22.456Z,101436.56
2022-08-03T21:24:54.261Z,101433.56
2022-08-03T21:27:24.191Z,101433.75
2022-08-03T21:29:52.981Z,101438.75
2022-08-03T21:32:32.530Z,101431.25
2022-08-03T21:35:00.285Z,101428.91
2022-08-03T21:37:28.495Z,101427.59
2022-08-03T21:39:56.069Z,101429.75
2022-08-03T21:42:26.490Z,101436.25
2022-08-03T21:44:53.781Z,101431.59
2022-08-03T21:47:24.845Z,101429.59
2022-08-03T21:50:08.840Z,101435.59
2022-08-03T21:52:42.124Z,101432.59
2022-08-03T21:55:18.178Z,101432.25
2022-08-03T21:57:51.787Z,101421.22
2022-08-03T22:00:20.964Z,101427.25
2022-08-03T22:02:55.551Z,101430.38
2022-08-03T22:05:28.156Z,101429.03
2022-08-03T22:08:09.419Z,101419.84
2022-08-03T22:10:36.867Z,101421.19
2022-08-03T22:13:03.527Z,101424.50
2022-08-03T22:15:30.587Z,101424.69
2022-08-03T22:17:57.511Z,101426.84
2022-08-03T22:20:24.339Z,101423.66
2022-08-03T22:22:56.123Z,101421.31
2022-08-03T22:25:27.380Z,101426.16
2022-08-03T22:27:54.853Z,101425.78
2022-08-03T22:30:21.552Z,101421.78
2022-08-03T22:32:52.776Z,101421.09
2022-08-03T22:35:21.305Z,101422.75
2022-08-03T22:37:54.202Z,101414.25
2022-08-03T22:40:20.823Z,101410.06
2022-08-03T22:42:52.195Z,101414.75
2022-08-03T22:46:09.954Z,101409.88
2022-08-03T22:48:07.537Z,101404.19
2022-08-03T22:50:34.956Z,101402.00
2022-08-03T22:53:01.567Z,101404.31
2022-08-03T22:55:28.172Z,101403.97
2022-08-03T22:57:56.024Z,101403.41
2022-08-03T23:00:23.479Z,101396.63
2022-08-03T23:02:51.599Z,101395.41
2022-08-03T23:06:02.510Z,101399.38
2022-08-03T23:08:12.310Z,101400.03
2022-08-03T23:10:44.871Z,101403.00
2022-08-03T23:13:14.455Z,101394.66
2022-08-03T23:15:41.439Z,101397.78
2022-08-03T23:18:09.418Z,101394.59
2022-08-03T23:20:37.788Z,101398.56
2022-08-03T23:23:05.099Z,101399.06
2022-08-03T23:25:31.808Z,101396.53
2022-08-03T23:28:05.005Z,101397.97
2022-08-03T23:30:37.007Z,101393.94
2022-08-03T23:33:04.336Z,101396.25
2022-08-03T23:36:29.898Z,101399.53
2022-08-03T23:38:36.853Z,101391.47
2022-08-03T23:41:05.047Z,101399.94
2022-08-03T23:43:45.120Z,101400.41
2022-08-03T23:46:21.219Z,101393.69
2022-08-03T23:48:47.782Z,101393.84
2022-08-03T23:51:22.422Z,101394.47
2022-08-03T23:54:02.151Z,101390.97
2022-08-03T23:56:52.790Z,101393.13
